CheckWX is a tool to help pilots better visualize weather data.  It is not intended as a substitute for an official pre-flight weather briefing.

02:53:46 UTC

KMLP METAR
Mullan Pass Vor Airport
Mullan Pass, Idaho, USA
Current

1 hour ago

KMLP 240153Z AUTO 31004KT 10SM SCT034 OVC110 02/M02 A3005 RMK AO2 SLP144 T00221022
Observed
Mar-24 @ 01:53 UTC
Wind
  • 310° at 4 KTS
Visibility
10 SM
Flight Rules
VFR
Cloud Levels
  • Scattered at 3,400' AGL
  • Overcast at 11,000' AGL
Temperature
C / 36°F
Dewpoint
-2°C / 28°F
Humidity
75%
Altimeter
30.05" Hg
Pressure
1014.4 hPa
Previous

2 hours ago

KMLP 240053Z AUTO 34003KT 10SM OVC033 04/M02 A3005 RMK AO2 SLP139 T00391022
Observed
Mar-24 @ 00:53 UTC
Wind
  • 340° at 3 KTS
Visibility
10 SM
Flight Rules
VFR
Cloud Levels
  • Overcast at 3,300' AGL
Temperature
C / 39°F
Dewpoint
-2°C / 28°F
Humidity
65%
Altimeter
30.05" Hg
Pressure
1013.9 hPa
Previous

3 hours ago

KMLP 240004Z AUTO VRB03KT 10SM FEW023 OVC032 04/M02 A3005 RMK AO2 T00391022
Observed
Mar-24 @ 00:04 UTC
Wind
  • Variable at 3 KTS
Visibility
10 SM
Flight Rules
VFR
Cloud Levels
  • Few at 2,300' AGL
  • Overcast at 3,200' AGL
Temperature
C / 39°F
Dewpoint
-2°C / 28°F
Humidity
65%
Altimeter
30.05" Hg
Pressure
1017.62 hPa